sensor_id;sensor_type;location;lat;lon;timestamp;pressure;altitude;pressure_sealevel;temperature;humidity
6345;BME280;3205;42.666;23.264;2023-02-14T00:02:18;95794.03;;;1.72;100.00
6345;BME280;3205;42.666;23.264;2023-02-14T00:04:44;95800.28;;;1.71;100.00
6345;BME280;3205;42.666;23.264;2023-02-14T00:07:12;95797.47;;;1.72;100.00
6345;BME280;3205;42.666;23.264;2023-02-14T00:09:39;95797.03;;;1.59;100.00
6345;BME280;3205;42.666;23.264;2023-02-14T00:12:05;95793.09;;;1.56;100.00
6345;BME280;3205;42.666;23.264;2023-02-14T00:14:32;95799.31;;;1.55;100.00
6345;BME280;3205;42.666;23.264;2023-02-14T00:17:16;95794.97;;;1.61;100.00
6345;BME280;3205;42.666;23.264;2023-02-14T00:19:43;95806.81;;;1.73;100.00
6345;BME280;3205;42.666;23.264;2023-02-14T00:22:09;95807.44;;;1.80;100.00
6345;BME280;3205;42.666;23.264;2023-02-14T00:24:35;95802.28;;;1.85;100.00
6345;BME280;3205;42.666;23.264;2023-02-14T00:27:01;95810.84;;;2.07;100.00
6345;BME280;3205;42.666;23.264;2023-02-14T00:29:30;95800.88;;;2.25;100.00
6345;BME280;3205;42.666;23.264;2023-02-14T00:31:56;95805.69;;;2.38;100.00
6345;BME280;3205;42.666;23.264;2023-02-14T00:34:22;95810.75;;;2.50;100.00
6345;BME280;3205;42.666;23.264;2023-02-14T00:36:49;95799.09;;;2.57;100.00
6345;BME280;3205;42.666;23.264;2023-02-14T00:39:17;95804.94;;;2.69;100.00
6345;BME280;3205;42.666;23.264;2023-02-14T00:41:43;95802.16;;;2.81;100.00
6345;BME280;3205;42.666;23.264;2023-02-14T00:44:10;95792.53;;;2.86;100.00
6345;BME280;3205;42.666;23.264;2023-02-14T00:46:37;95802.78;;;2.92;100.00
6345;BME280;3205;42.666;23.264;2023-02-14T00:49:04;95808.53;;;2.94;100.00
6345;BME280;3205;42.666;23.264;2023-02-14T00:51:30;95801.22;;;2.96;100.00
6345;BME280;3205;42.666;23.264;2023-02-14T00:53:57;95800.78;;;3.09;100.00
6345;BME280;3205;42.666;23.264;2023-02-14T00:56:23;95796.09;;;3.06;100.00
6345;BME280;3205;42.666;23.264;2023-02-14T00:58:50;95798.91;;;3.00;100.00
6345;BME280;3205;42.666;23.264;2023-02-14T01:01:16;95785.59;;;3.01;100.00
6345;BME280;3205;42.666;23.264;2023-02-14T01:03:43;95785.06;;;2.99;100.00
6345;BME280;3205;42.666;23.264;2023-02-14T01:06:09;95788.13;;;2.92;100.00
6345;BME280;3205;42.666;23.264;2023-02-14T01:08:35;95786.09;;;2.98;100.00
6345;BME280;3205;42.666;23.264;2023-02-14T01:11:07;95784.59;;;3.07;100.00
6345;BME280;3205;42.666;23.264;2023-02-14T01:13:33;95784.63;;;3.12;100.00
6345;BME280;3205;42.666;23.264;2023-02-14T01:16:04;95779.38;;;3.07;100.00
6345;BME280;3205;42.666;23.264;2023-02-14T01:18:31;95781.78;;;3.19;100.00
6345;BME280;3205;42.666;23.264;2023-02-14T01:21:08;95774.75;;;3.24;100.00
6345;BME280;3205;42.666;23.264;2023-02-14T01:23:34;95785.38;;;3.08;100.00
6345;BME280;3205;42.666;23.264;2023-02-14T01:26:03;95771.09;;;3.25;100.00
6345;BME280;3205;42.666;23.264;2023-02-14T01:28:33;95763.25;;;3.20;100.00
6345;BME280;3205;42.666;23.264;2023-02-14T01:31:08;95761.16;;;3.22;100.00
6345;BME280;3205;42.666;23.264;2023-02-14T01:33:34;95775.47;;;3.10;100.00
6345;BME280;3205;42.666;23.264;2023-02-14T01:36:00;95761.59;;;3.09;100.00
6345;BME280;3205;42.666;23.264;2023-02-14T01:38:26;95768.09;;;3.02;100.00
6345;BME280;3205;42.666;23.264;2023-02-14T01:40:53;95751.69;;;3.06;100.00
6345;BME280;3205;42.666;23.264;2023-02-14T01:43:19;95739.78;;;3.30;100.00
6345;BME280;3205;42.666;23.264;2023-02-14T01:45:46;95738.19;;;3.24;100.00
6345;BME280;3205;42.666;23.264;2023-02-14T01:48:12;95738.97;;;3.25;100.00
6345;BME280;3205;42.666;23.264;2023-02-14T01:50:41;95729.84;;;3.27;100.00
6345;BME280;3205;42.666;23.264;2023-02-14T01:53:10;95732.19;;;3.29;100.00
6345;BME280;3205;42.666;23.264;2023-02-14T01:55:41;95731.91;;;3.25;100.00
6345;BME280;3205;42.666;23.264;2023-02-14T01:58:12;95731.63;;;3.17;100.00
6345;BME280;3205;42.666;23.264;2023-02-14T02:00:39;95729.03;;;3.22;100.00
6345;BME280;3205;42.666;23.264;2023-02-14T02:03:23;95725.94;;;3.35;100.00
6345;BME280;3205;42.666;23.264;2023-02-14T02:05:52;95730.34;;;3.29;100.00
6345;BME280;3205;42.666;23.264;2023-02-14T02:08:22;95732.97;;;3.29;100.00
6345;BME280;3205;42.666;23.264;2023-02-14T02:10:48;95728.47;;;3.20;100.00
6345;BME280;3205;42.666;23.264;2023-02-14T02:13:16;95729.59;;;3.29;100.00
6345;BME280;3205;42.666;23.264;2023-02-14T02:15:50;95729.59;;;3.29;100.00
6345;BME280;3205;42.666;23.264;2023-02-14T02:18:25;95728.34;;;3.41;100.00
6345;BME280;3205;42.666;23.264;2023-02-14T02:24:19;95730.97;;;3.51;100.00
6345;BME280;3205;42.666;23.264;2023-02-14T02:27:06;95720.50;;;3.46;100.00
6345;BME280;3205;42.666;23.264;2023-02-14T02:33:40;95704.56;;;3.43;100.00
6345;BME280;3205;42.666;23.264;2023-02-14T02:39:22;95694.06;;;3.33;100.00
6345;BME280;3205;42.666;23.264;2023-02-14T02:42:03;95682.84;;;3.32;100.00
6345;BME280;3205;42.666;23.264;2023-02-14T02:44:43;95682.28;;;3.25;100.00
6345;BME280;3205;42.666;23.264;2023-02-14T02:47:21;95689.56;;;3.18;100.00
6345;BME280;3205;42.666;23.264;2023-02-14T02:49:55;95686.91;;;3.08;100.00
6345;BME280;3205;42.666;23.264;2023-02-14T02:52:46;95695.22;;;3.00;100.00
6345;BME280;3205;42.666;23.264;2023-02-14T02:55:37;95684.78;;;3.00;100.00
6345;BME280;3205;42.666;23.264;2023-02-14T02:58:26;95694.66;;;2.93;100.00
6345;BME280;3205;42.666;23.264;2023-02-14T03:00:55;95688.09;;;2.86;100.00
6345;BME280;3205;42.666;23.264;2023-02-14T03:03:24;95682.63;;;2.88;100.00
6345;BME280;3205;42.666;23.264;2023-02-14T03:06:09;95691.81;;;2.95;100.00
6345;BME280;3205;42.666;23.264;2023-02-14T03:08:36;95694.38;;;2.90;100.00
6345;BME280;3205;42.666;23.264;2023-02-14T03:11:02;95697.31;;;2.98;100.00
6345;BME280;3205;42.666;23.264;2023-02-14T03:13:42;95699.16;;;3.03;100.00
6345;BME280;3205;42.666;23.264;2023-02-14T03:16:35;95688.19;;;3.06;100.00
6345;BME280;3205;42.666;23.264;2023-02-14T03:19:31;95693.19;;;3.07;100.00
6345;BME280;3205;42.666;23.264;2023-02-14T03:22:27;95690.28;;;3.04;100.00
6345;BME280;3205;42.666;23.264;2023-02-14T03:25:07;95670.16;;;2.99;100.00
6345;BME280;3205;42.666;23.264;2023-02-14T03:27:40;95678.19;;;2.93;100.00
6345;BME280;3205;42.666;23.264;2023-02-14T03:30:13;95664.34;;;2.88;100.00
6345;BME280;3205;42.666;23.264;2023-02-14T03:32:44;95657.56;;;2.92;100.00
6345;BME280;3205;42.666;23.264;2023-02-14T03:35:16;95657.56;;;2.87;100.00
6345;BME280;3205;42.666;23.264;2023-02-14T03:37:48;95660.63;;;2.74;100.00
6345;BME280;3205;42.666;23.264;2023-02-14T03:40:20;95664.00;;;2.74;100.00
6345;BME280;3205;42.666;23.264;2023-02-14T03:42:51;95685.16;;;2.78;100.00
6345;BME280;3205;42.666;23.264;2023-02-14T03:45:22;95670.28;;;2.78;100.00
6345;BME280;3205;42.666;23.264;2023-02-14T03:47:53;95663.47;;;2.72;100.00
6345;BME280;3205;42.666;23.264;2023-02-14T03:50:20;95670.50;;;2.67;100.00
6345;BME280;3205;42.666;23.264;2023-02-14T03:52:49;95669.19;;;2.69;100.00
6345;BME280;3205;42.666;23.264;2023-02-14T03:55:23;95656.13;;;2.64;100.00
6345;BME280;3205;42.666;23.264;2023-02-14T03:57:56;95646.66;;;2.53;100.00
6345;BME280;3205;42.666;23.264;2023-02-14T04:00:25;95644.31;;;2.52;100.00
6345;BME280;3205;42.666;23.264;2023-02-14T04:02:53;95648.47;;;2.53;100.00
6345;BME280;3205;42.666;23.264;2023-02-14T04:05:23;95640.13;;;2.56;100.00
6345;BME280;3205;42.666;23.264;2023-02-14T04:07:51;95635.47;;;2.63;100.00
6345;BME280;3205;42.666;23.264;2023-02-14T04:10:19;95638.38;;;2.66;100.00
6345;BME280;3205;42.666;23.264;2023-02-14T04:12:46;95632.84;;;2.58;100.00
6345;BME280;3205;42.666;23.264;2023-02-14T04:15:13;95633.16;;;2.66;100.00
6345;BME280;3205;42.666;23.264;2023-02-14T04:17:40;95637.31;;;2.62;100.00
6345;BME280;3205;42.666;23.264;2023-02-14T04:20:24;95637.63;;;2.71;100.00
6345;BME280;3205;42.666;23.264;2023-02-14T04:22:52;95643.59;;;2.66;100.00
6345;BME280;3205;42.666;23.264;2023-02-14T04:25:21;95643.38;;;2.73;100.00
6345;BME280;3205;42.666;23.264;2023-02-14T04:27:47;95642.28;;;2.69;100.00
6345;BME280;3205;42.666;23.264;2023-02-14T04:30:14;95640.25;;;2.76;100.00
6345;BME280;3205;42.666;23.264;2023-02-14T04:32:42;95648.13;;;2.81;100.00
6345;BME280;3205;42.666;23.264;2023-02-14T04:35:09;95644.44;;;2.82;100.00
6345;BME280;3205;42.666;23.264;2023-02-14T04:37:35;95636.09;;;2.80;100.00
6345;BME280;3205;42.666;23.264;2023-02-14T04:40:01;95639.00;;;2.83;100.00
6345;BME280;3205;42.666;23.264;2023-02-14T04:42:29;95645.56;;;2.91;100.00
6345;BME280;3205;42.666;23.264;2023-02-14T04:44:55;95640.31;;;2.86;100.00
6345;BME280;3205;42.666;23.264;2023-02-14T04:47:21;95625.19;;;2.88;100.00
6345;BME280;3205;42.666;23.264;2023-02-14T04:49:48;95623.00;;;2.75;100.00
6345;BME280;3205;42.666;23.264;2023-02-14T04:52:14;95611.03;;;2.74;100.00
6345;BME280;3205;42.666;23.264;2023-02-14T04:54:41;95603.31;;;2.52;100.00
6345;BME280;3205;42.666;23.264;2023-02-14T04:57:07;95608.50;;;2.42;100.00
6345;BME280;3205;42.666;23.264;2023-02-14T04:59:36;95613.91;;;2.36;100.00
6345;BME280;3205;42.666;23.264;2023-02-14T05:02:03;95613.72;;;2.42;100.00
6345;BME280;3205;42.666;23.264;2023-02-14T05:04:29;95605.94;;;2.52;100.00
6345;BME280;3205;42.666;23.264;2023-02-14T05:06:56;95620.84;;;2.62;100.00
6345;BME280;3205;42.666;23.264;2023-02-14T05:09:22;95625.31;;;2.61;100.00
6345;BME280;3205;42.666;23.264;2023-02-14T05:11:48;95626.13;;;2.67;100.00
6345;BME280;3205;42.666;23.264;2023-02-14T05:14:14;95621.47;;;2.74;100.00
6345;BME280;3205;42.666;23.264;2023-02-14T05:16:41;95618.31;;;2.77;100.00
6345;BME280;3205;42.666;23.264;2023-02-14T05:19:07;95611.31;;;2.77;100.00
6345;BME280;3205;42.666;23.264;2023-02-14T05:21:34;95616.28;;;2.84;100.00
6345;BME280;3205;42.666;23.264;2023-02-14T05:24:00;95618.41;;;2.92;100.00
6345;BME280;3205;42.666;23.264;2023-02-14T05:26:26;95612.69;;;2.99;100.00
6345;BME280;3205;42.666;23.264;2023-02-14T05:28:53;95612.69;;;2.99;100.00
6345;BME280;3205;42.666;23.264;2023-02-14T05:31:19;95612.16;;;2.97;100.00
6345;BME280;3205;42.666;23.264;2023-02-14T05:33:47;95622.31;;;2.84;100.00
6345;BME280;3205;42.666;23.264;2023-02-14T05:36:13;95613.13;;;2.82;100.00
6345;BME280;3205;42.666;23.264;2023-02-14T05:38:40;95610.56;;;2.87;100.00
6345;BME280;3205;42.666;23.264;2023-02-14T05:41:06;95621.28;;;2.90;100.00
6345;BME280;3205;42.666;23.264;2023-02-14T05:43:32;95617.09;;;2.94;100.00
6345;BME280;3205;42.666;23.264;2023-02-14T05:45:58;95599.09;;;2.92;100.00
6345;BME280;3205;42.666;23.264;2023-02-14T05:48:24;95611.56;;;2.81;100.00
6345;BME280;3205;42.666;23.264;2023-02-14T05:50:51;95609.25;;;2.89;100.00
6345;BME280;3205;42.666;23.264;2023-02-14T05:53:17;95605.41;;;3.11;100.00
6345;BME280;3205;42.666;23.264;2023-02-14T05:55:44;95608.34;;;3.25;100.00
6345;BME280;3205;42.666;23.264;2023-02-14T05:58:10;95613.84;;;3.33;100.00
6345;BME280;3205;42.666;23.264;2023-02-14T06:00:37;95613.09;;;3.48;100.00
6345;BME280;3205;42.666;23.264;2023-02-14T06:03:04;95613.41;;;3.61;100.00
6345;BME280;3205;42.666;23.264;2023-02-14T06:05:30;95607.66;;;3.69;100.00
6345;BME280;3205;42.666;23.264;2023-02-14T06:07:57;95610.81;;;3.76;100.00
6345;BME280;3205;42.666;23.264;2023-02-14T06:10:25;95618.09;;;3.84;100.00
6345;BME280;3205;42.666;23.264;2023-02-14T06:12:52;95622.56;;;3.93;100.00
6345;BME280;3205;42.666;23.264;2023-02-14T06:15:18;95618.41;;;3.97;100.00
6345;BME280;3205;42.666;23.264;2023-02-14T06:17:50;95621.28;;;4.16;100.00
6345;BME280;3205;42.666;23.264;2023-02-14T06:20:17;95621.25;;;4.11;100.00
6345;BME280;3205;42.666;23.264;2023-02-14T06:22:44;95619.16;;;4.18;100.00
6345;BME280;3205;42.666;23.264;2023-02-14T06:25:13;95626.25;;;4.32;100.00
6345;BME280;3205;42.666;23.264;2023-02-14T06:27:39;95627.81;;;4.33;100.00
6345;BME280;3205;42.666;23.264;2023-02-14T06:30:06;95629.63;;;4.42;100.00
6345;BME280;3205;42.666;23.264;2023-02-14T06:32:32;95628.84;;;4.37;100.00
6345;BME280;3205;42.666;23.264;2023-02-14T06:34:59;95626.75;;;4.34;100.00
6345;BME280;3205;42.666;23.264;2023-02-14T06:37:28;95623.06;;;4.35;100.00
6345;BME280;3205;42.666;23.264;2023-02-14T06:39:55;95628.59;;;4.43;100.00
6345;BME280;3205;42.666;23.264;2023-02-14T06:42:22;95624.13;;;4.54;100.00
6345;BME280;3205;42.666;23.264;2023-02-14T06:44:48;95627.00;;;4.47;100.00
6345;BME280;3205;42.666;23.264;2023-02-14T06:47:14;95628.56;;;4.48;100.00
6345;BME280;3205;42.666;23.264;2023-02-14T06:49:41;95629.09;;;4.45;100.00
6345;BME280;3205;42.666;23.264;2023-02-14T06:52:07;95616.53;;;4.57;100.00
6345;BME280;3205;42.666;23.264;2023-02-14T06:54:33;95611.00;;;4.59;100.00
6345;BME280;3205;42.666;23.264;2023-02-14T06:57:00;95609.16;;;4.69;100.00
6345;BME280;3205;42.666;23.264;2023-02-14T06:59:28;95602.59;;;4.72;100.00
6345;BME280;3205;42.666;23.264;2023-02-14T07:01:54;95611.22;;;4.82;100.00
6345;BME280;3205;42.666;23.264;2023-02-14T07:04:20;95614.88;;;4.91;100.00
6345;BME280;3205;42.666;23.264;2023-02-14T07:06:46;95603.59;;;4.91;100.00
6345;BME280;3205;42.666;23.264;2023-02-14T07:09:12;95608.03;;;4.90;100.00
6345;BME280;3205;42.666;23.264;2023-02-14T07:11:42;95601.22;;;4.94;100.00
6345;BME280;3205;42.666;23.264;2023-02-14T07:14:09;95593.59;;;4.98;100.00
6345;BME280;3205;42.666;23.264;2023-02-14T07:16:35;95593.38;;;4.89;100.00
6345;BME280;3205;42.666;23.264;2023-02-14T07:19:02;95605.69;;;4.89;100.00
6345;BME280;3205;42.666;23.264;2023-02-14T07:21:28;95609.13;;;4.79;100.00
6345;BME280;3205;42.666;23.264;2023-02-14T07:23:55;95611.97;;;4.83;100.00
6345;BME280;3205;42.666;23.264;2023-02-14T07:26:22;95619.56;;;4.89;100.00
6345;BME280;3205;42.666;23.264;2023-02-14T07:28:49;95612.50;;;4.85;100.00
6345;BME280;3205;42.666;23.264;2023-02-14T07:31:16;95608.56;;;4.87;100.00
6345;BME280;3205;42.666;23.264;2023-02-14T07:33:43;95608.56;;;4.87;100.00
6345;BME280;3205;42.666;23.264;2023-02-14T07:36:10;95612.50;;;4.95;100.00
6345;BME280;3205;42.666;23.264;2023-02-14T07:38:37;95597.06;;;4.78;100.00
6345;BME280;3205;42.666;23.264;2023-02-14T07:41:03;95611.47;;;4.86;100.00
6345;BME280;3205;42.666;23.264;2023-02-14T07:43:29;95608.59;;;4.82;100.00
6345;BME280;3205;42.666;23.264;2023-02-14T07:45:58;95609.63;;;4.91;100.00
6345;BME280;3205;42.666;23.264;2023-02-14T07:48:26;95613.53;;;4.89;100.00
6345;BME280;3205;42.666;23.264;2023-02-14T07:50:54;95613.28;;;4.90;100.00
6345;BME280;3205;42.666;23.264;2023-02-14T07:53:21;95610.13;;;4.93;100.00
6345;BME280;3205;42.666;23.264;2023-02-14T07:55:48;95624.00;;;4.99;100.00
6345;BME280;3205;42.666;23.264;2023-02-14T07:58:14;95622.22;;;4.84;100.00
6345;BME280;3205;42.666;23.264;2023-02-14T08:00:40;95619.59;;;4.84;100.00
6345;BME280;3205;42.666;23.264;2023-02-14T08:03:07;95620.66;;;4.73;100.00
6345;BME280;3205;42.666;23.264;2023-02-14T08:05:34;95624.34;;;4.77;100.00
6345;BME280;3205;42.666;23.264;2023-02-14T08:08:01;95626.94;;;4.72;100.00
6345;BME280;3205;42.666;23.264;2023-02-14T08:10:27;95629.56;;;4.77;100.00
6345;BME280;3205;42.666;23.264;2023-02-14T08:12:54;95633.72;;;4.78;100.00
6345;BME280;3205;42.666;23.264;2023-02-14T08:15:27;95628.75;;;4.87;100.00
6345;BME280;3205;42.666;23.264;2023-02-14T08:18:12;95632.66;;;4.94;100.00
6345;BME280;3205;42.666;23.264;2023-02-14T08:20:39;95640.53;;;4.89;100.00
6345;BME280;3205;42.666;23.264;2023-02-14T08:23:06;95638.44;;;4.91;100.00
6345;BME280;3205;42.666;23.264;2023-02-14T08:25:32;95646.28;;;4.91;100.00
6345;BME280;3205;42.666;23.264;2023-02-14T08:28:00;95654.63;;;5.03;100.00
6345;BME280;3205;42.666;23.264;2023-02-14T08:30:26;95646.00;;;4.98;100.00
6345;BME280;3205;42.666;23.264;2023-02-14T08:32:52;95652.00;;;5.03;100.00
6345;BME280;3205;42.666;23.264;2023-02-14T08:35:19;95651.44;;;5.16;100.00
6345;BME280;3205;42.666;23.264;2023-02-14T08:37:45;95643.84;;;5.19;100.00
6345;BME280;3205;42.666;23.264;2023-02-14T08:40:12;95637.25;;;5.32;100.00
6345;BME280;3205;42.666;23.264;2023-02-14T08:42:39;95633.13;;;5.06;100.00
6345;BME280;3205;42.666;23.264;2023-02-14T08:45:05;95636.84;;;4.95;100.00
6345;BME280;3205;42.666;23.264;2023-02-14T08:47:32;95651.50;;;4.96;100.00
6345;BME280;3205;42.666;23.264;2023-02-14T08:50:00;95649.41;;;4.93;100.00
6345;BME280;3205;42.666;23.264;2023-02-14T08:52:27;95646.81;;;4.88;100.00
6345;BME280;3205;42.666;23.264;2023-02-14T08:54:53;95643.97;;;4.70;100.00
6345;BME280;3205;42.666;23.264;2023-02-14T08:57:20;95646.28;;;4.86;100.00
6345;BME280;3205;42.666;23.264;2023-02-14T08:59:47;95645.53;;;4.71;100.00
6345;BME280;3205;42.666;23.264;2023-02-14T09:02:13;95641.88;;;4.72;100.00
6345;BME280;3205;42.666;23.264;2023-02-14T09:04:40;95643.22;;;4.64;100.00
6345;BME280;3205;42.666;23.264;2023-02-14T09:07:06;95645.59;;;4.61;100.00
6345;BME280;3205;42.666;23.264;2023-02-14T09:09:33;95637.16;;;4.69;100.00
6345;BME280;3205;42.666;23.264;2023-02-14T09:12:02;95630.81;;;4.90;100.00
6345;BME280;3205;42.666;23.264;2023-02-14T09:14:33;95632.66;;;4.94;100.00
6345;BME280;3205;42.666;23.264;2023-02-14T09:17:00;95639.47;;;4.95;100.00
6345;BME280;3205;42.666;23.264;2023-02-14T09:19:30;95624.25;;;5.02;100.00
6345;BME280;3205;42.666;23.264;2023-02-14T09:21:57;95633.63;;;5.13;100.00
6345;BME280;3205;42.666;23.264;2023-02-14T09:24:23;95613.72;;;5.17;100.00
6345;BME280;3205;42.666;23.264;2023-02-14T09:26:52;95621.31;;;5.13;100.00
6345;BME280;3205;42.666;23.264;2023-02-14T09:29:18;95619.00;;;5.02;100.00
6345;BME280;3205;42.666;23.264;2023-02-14T09:31:45;95625.59;;;4.90;100.00
6345;BME280;3205;42.666;23.264;2023-02-14T09:34:11;95631.38;;;4.87;100.00
6345;BME280;3205;42.666;23.264;2023-02-14T09:36:56;95626.88;;;4.97;100.00
6345;BME280;3205;42.666;23.264;2023-02-14T09:39:40;95623.25;;;4.83;100.00
6345;BME280;3205;42.666;23.264;2023-02-14T09:42:34;95618.53;;;4.80;100.00
6345;BME280;3205;42.666;23.264;2023-02-14T09:45:04;95621.16;;;4.80;100.00
6345;BME280;3205;42.666;23.264;2023-02-14T09:47:35;95615.41;;;4.78;100.00
6345;BME280;3205;42.666;23.264;2023-02-14T09:50:09;95610.91;;;4.89;100.00
6345;BME280;3205;42.666;23.264;2023-02-14T09:52:36;95618.28;;;4.82;100.00
6345;BME280;3205;42.666;23.264;2023-02-14T09:55:02;95617.47;;;4.86;100.00
6345;BME280;3205;42.666;23.264;2023-02-14T09:57:35;95612.50;;;4.95;100.00
6345;BME280;3205;42.666;23.264;2023-02-14T10:00:13;95611.16;;;4.97;100.00
6345;BME280;3205;42.666;23.264;2023-02-14T10:02:48;95607.72;;;5.07;100.00
6345;BME280;3205;42.666;23.264;2023-02-14T10:05:21;95611.50;;;5.39;100.00
6345;BME280;3205;42.666;23.264;2023-02-14T10:07:55;95604.59;;;5.58;100.00
6345;BME280;3205;42.666;23.264;2023-02-14T10:10:25;95610.06;;;5.56;100.00
6345;BME280;3205;42.666;23.264;2023-02-14T10:12:55;95603.97;;;5.71;100.00
6345;BME280;3205;42.666;23.264;2023-02-14T10:15:24;95601.31;;;5.76;100.00
6345;BME280;3205;42.666;23.264;2023-02-14T10:17:57;95602.91;;;5.77;100.00
6345;BME280;3205;42.666;23.264;2023-02-14T10:20:29;95601.94;;;5.63;100.00
6345;BME280;3205;42.666;23.264;2023-02-14T10:23:02;95607.41;;;5.66;100.00
6345;BME280;3205;42.666;23.264;2023-02-14T10:25:37;95602.94;;;5.67;100.00
6345;BME280;3205;42.666;23.264;2023-02-14T10:28:08;95596.91;;;5.66;100.00
6345;BME280;3205;42.666;23.264;2023-02-14T10:30:39;95595.91;;;5.62;100.00
6345;BME280;3205;42.666;23.264;2023-02-14T10:33:15;95592.91;;;5.84;100.00
6345;BME280;3205;42.666;23.264;2023-02-14T10:35:45;95602.13;;;5.76;100.00
6345;BME280;3205;42.666;23.264;2023-02-14T10:38:25;95588.19;;;5.76;100.00
6345;BME280;3205;42.666;23.264;2023-02-14T10:41:16;95593.44;;;5.76;100.00
6345;BME280;3205;42.666;23.264;2023-02-14T10:43:49;95601.31;;;5.76;100.00
6345;BME280;3205;42.666;23.264;2023-02-14T10:46:23;95593.06;;;5.54;100.00
6345;BME280;3205;42.666;23.264;2023-02-14T10:48:57;95599.94;;;5.45;100.00
6345;BME280;3205;42.666;23.264;2023-02-14T10:51:30;95593.16;;;5.39;100.00
6345;BME280;3205;42.666;23.264;2023-02-14T10:54:10;95605.69;;;5.47;100.00
6345;BME280;3205;42.666;23.264;2023-02-14T10:56:43;95610.28;;;5.16;100.00
6345;BME280;3205;42.666;23.264;2023-02-14T10:59:17;95600.84;;;5.15;100.00
6345;BME280;3205;42.666;23.264;2023-02-14T11:01:47;95577.53;;;5.14;100.00
6345;BME280;3205;42.666;23.264;2023-02-14T11:04:16;95581.47;;;5.21;100.00
6345;BME280;3205;42.666;23.264;2023-02-14T11:06:43;95587.44;;;5.27;100.00
6345;BME280;3205;42.666;23.264;2023-02-14T11:09:12;95586.56;;;5.46;100.00
6345;BME280;3205;42.666;23.264;2023-02-14T11:11:41;95592.59;;;5.42;100.00
6345;BME280;3205;42.666;23.264;2023-02-14T11:14:20;95583.94;;;5.46;100.00
6345;BME280;3205;42.666;23.264;2023-02-14T11:16:47;95577.63;;;5.47;100.00
6345;BME280;3205;42.666;23.264;2023-02-14T11:19:23;95577.03;;;5.60;100.00
6345;BME280;3205;42.666;23.264;2023-02-14T11:21:51;95589.41;;;5.50;100.00
6345;BME280;3205;42.666;23.264;2023-02-14T11:24:19;95579.25;;;5.38;100.00
6345;BME280;3205;42.666;23.264;2023-02-14T11:26:50;95577.84;;;5.56;100.00
6345;BME280;3205;42.666;23.264;2023-02-14T11:29:24;95573.94;;;5.53;100.00
6345;BME280;3205;42.666;23.264;2023-02-14T11:31:51;95578.13;;;5.49;100.00
6345;BME280;3205;42.666;23.264;2023-02-14T11:34:32;95562.19;;;5.41;100.00
6345;BME280;3205;42.666;23.264;2023-02-14T11:37:01;95564.31;;;5.39;100.00
6345;BME280;3205;42.666;23.264;2023-02-14T11:39:29;95564.03;;;5.40;100.00
6345;BME280;3205;42.666;23.264;2023-02-14T11:41:58;95557.66;;;5.51;100.00
6345;BME280;3205;42.666;23.264;2023-02-14T11:44:26;95559.75;;;5.54;100.00
6345;BME280;3205;42.666;23.264;2023-02-14T11:46:54;95553.72;;;5.59;100.00
6345;BME280;3205;42.666;23.264;2023-02-14T11:49:24;95555.72;;;5.72;100.00
6345;BME280;3205;42.666;23.264;2023-02-14T11:51:54;95553.91;;;5.67;100.00
6345;BME280;3205;42.666;23.264;2023-02-14T11:54:28;95545.34;;;5.52;100.00
6345;BME280;3205;42.666;23.264;2023-02-14T11:57:01;95540.13;;;5.47;100.00
6345;BME280;3205;42.666;23.264;2023-02-14T11:59:30;95535.72;;;5.76;100.00
6345;BME280;3205;42.666;23.264;2023-02-14T12:02:01;95536.22;;;5.83;100.00
6345;BME280;3205;42.666;23.264;2023-02-14T12:04:34;95536.47;;;5.86;100.00
6345;BME280;3205;42.666;23.264;2023-02-14T12:07:16;95526.94;;;5.95;100.00
6345;BME280;3205;42.666;23.264;2023-02-14T12:09:45;95524.50;;;6.03;100.00
6345;BME280;3205;42.666;23.264;2023-02-14T12:12:19;95526.38;;;5.98;100.00
6345;BME280;3205;42.666;23.264;2023-02-14T12:14:46;95523.44;;;6.04;100.00
6345;BME280;3205;42.666;23.264;2023-02-14T12:17:23;95521.28;;;6.11;100.00
6345;BME280;3205;42.666;23.264;2023-02-14T12:19:54;95526.31;;;6.08;100.00
6345;BME280;3205;42.666;23.264;2023-02-14T12:22:28;95516.91;;;6.02;100.00
6345;BME280;3205;42.666;23.264;2023-02-14T12:25:01;95515.47;;;6.14;100.00
6345;BME280;3205;42.666;23.264;2023-02-14T12:27:32;95517.88;;;6.11;100.00
6345;BME280;3205;42.666;23.264;2023-02-14T12:30:08;95504.88;;;6.24;100.00
6345;BME280;3205;42.666;23.264;2023-02-14T12:32:37;95509.50;;;6.09;100.00
6345;BME280;3205;42.666;23.264;2023-02-14T12:35:15;95507.38;;;6.11;100.00
6345;BME280;3205;42.666;23.264;2023-02-14T12:37:51;95501.06;;;6.12;100.00
6345;BME280;3205;42.666;23.264;2023-02-14T12:40:29;95507.06;;;6.17;100.00
6345;BME280;3205;42.666;23.264;2023-02-14T12:43:15;95504.78;;;6.06;100.00
6345;BME280;3205;42.666;23.264;2023-02-14T12:46:03;95503.44;;;6.13;100.00
6345;BME280;3205;42.666;23.264;2023-02-14T12:48:40;95502.41;;;6.09;100.00
6345;BME280;3205;42.666;23.264;2023-02-14T12:51:12;95495.19;;;5.96;100.00
6345;BME280;3205;42.666;23.264;2023-02-14T12:53:50;95499.91;;;5.94;100.00
6345;BME280;3205;42.666;23.264;2023-02-14T12:56:27;95494.34;;;6.01;100.00
6345;BME280;3205;42.666;23.264;2023-02-14T12:59:12;95501.25;;;5.92;100.00
6345;BME280;3205;42.666;23.264;2023-02-14T13:01:55;95499.91;;;5.94;100.00
6345;BME280;3205;42.666;23.264;2023-02-14T13:04:47;95490.25;;;5.90;100.00
6345;BME280;3205;42.666;23.264;2023-02-14T13:07:31;95501.31;;;5.87;100.00
6345;BME280;3205;42.666;23.264;2023-02-14T13:10:12;95503.69;;;5.84;100.00
6345;BME280;3205;42.666;23.264;2023-02-14T13:12:44;95499.19;;;5.89;100.00
6345;BME280;3205;42.666;23.264;2023-02-14T13:15:20;95485.84;;;5.86;100.00
6345;BME280;3205;42.666;23.264;2023-02-14T13:17:55;95485.81;;;6.14;100.00
6345;BME280;3205;42.666;23.264;2023-02-14T13:20:38;95488.75;;;6.12;100.00
6345;BME280;3205;42.666;23.264;2023-02-14T13:23:13;95485.53;;;6.15;100.00
6345;BME280;3205;42.666;23.264;2023-02-14T13:25:42;95480.06;;;6.12;100.00
6345;BME280;3205;42.666;23.264;2023-02-14T13:28:15;95485.00;;;6.18;100.00
6345;BME280;3205;42.666;23.264;2023-02-14T13:30:41;95478.59;;;6.01;100.00
6345;BME280;3205;42.666;23.264;2023-02-14T13:33:17;95485.59;;;6.10;100.00
6345;BME280;3205;42.666;23.264;2023-02-14T13:35:48;95481.19;;;6.06;100.00
6345;BME280;3205;42.666;23.264;2023-02-14T13:38:15;95479.59;;;6.10;100.00